Dillon, Illinois
Current Conditions -  °F | °C
As of 11:54 PM on Sunday 25 Jan 2015 (Local Time) from KPIA Reporting Station
Clear Clear  
Wind Chill: -10°   Ceiling: Unl
Heat Index: -5°   Visibility: 10mi
Dew Point: -9°   Wind: 7mph
Humidity: 72%   Direction: 360°N
Pressure: 30.03"   Gusts: NA
Location:  40.4817°N, 89.4923°W
Report Text: KPIA 260554Z AUTO 36006KT 10SM CLR M05/M09 A3003 RMK AO2 SLP175 T10501094 11011 21050 400441050 51009 TSNO
Loading
Personal Weather Stations






























Interactive Weather Map New forecast layout! Learn more

10-Day Weather Forecast

Advertisements
Track Severe Weather on mobile